General Aviation Weather

Text Reports

Enter one or more of the following location identifiers separated by a space:

Zip Code, Four-Character ICAO or Three-Character IATA airport codes.

METAR - Aviation Routine Weather Report
KADU - Audubon, Iowa
Updated at 12:55 PM GMT on March 03, 2015 (6:55 AM CST):
METAR KADU 031255Z AUTO 19006KT 1 3/4SM UP BKN004 M01/M03 A2965 RMK AO2
TAF - Terminal Area Forecast
KADU - Audubon, Iowa
Updated at 12:55 PM GMT on March 03, 2015 (6:55 AM CST):
No TAF is currently available for this location.
Decoded:
No decoded TAF is available.
PIREP - Pilot Weather Report
KADU - Audubon, Iowa
Updated at 12:55 PM GMT on March 03, 2015 (6:55 AM CST):
No PIREP is currently available for this location.
AIRMET - Airmens Meteorological Information
KADU - Audubon, Iowa
Updated at 12:55 PM GMT on March 03, 2015 (6:55 AM CST):
No AIRMET is currently available for this location.
SIGMET - Significant Meteorological Information
KADU - Audubon, Iowa
Updated at 12:55 PM GMT on March 03, 2015 (6:55 AM CST):
No SIGMET is currently available for this location.
NOTAM - Notice to Airmen
KADU - Audubon, Iowa
Updated at 12:55 PM GMT on March 03, 2015 (6:55 AM CST):
No NOTAM is currently available for this location.
Forecast Area
KADU - Audubon, Iowa
Updated at 12:55 PM GMT on March 03, 2015 (6:55 AM CST):
No NOTAM is currently available for this location.
Aviation Weather Maps